Time;durP1;ratioP1;P1;durP2;ratioP2;P2;SDS_P1;SDS_P2;PMS_P1;PMS_P2;Temp;Humidity;BMP_temperature;BMP_pressure;BME280_temperature;BME280_humidity;BME280_pressure;Samples;Min_cycle;Max_cycle;Signal;HPM_P1;HPM_P2
2021/12/17 00:58:57;;;;;;;11.3;16.7;;;;;;;5.5;77.6;100070;;;;
2021/12/17 01:08:57;;;;;;;11.3;16.7;;;;;;;5.4;77.8;100050;;;;
2021/12/17 01:19:06;;;;;;;11.3;16.7;;;;;;;5.4;77.1;100040;;;;
2021/12/17 01:40:31;;;;;;;13.4;20.9;;;;;;;5.3;76.7;100020;;;;
2021/12/17 01:49:05;;;;;;;13.4;20.9;;;;;;;5.4;76.8;100040;;;;
2021/12/17 02:00:00;;;;;;;11.3;17.6;;;;;;;5.3;77;100050;;;;
2021/12/17 02:10:51;;;;;;;11.3;17.6;;;;;;;5.4;77.2;100030;;;;
2021/12/17 02:21:25;;;;;;;11.3;17.6;;;;;;;5.4;77.2;100010;;;;
2021/12/17 02:31:15;;;;;;;11.2;14.9;;;;;;;5.3;77.2;100020;;;;
2021/12/17 02:50:57;;;;;;;11.2;14.9;;;;;;;5.4;76.4;100010;;;;
2021/12/17 03:00:57;;;;;;;10.6;17.1;;;;;;;5.2;76.4;100010;;;;
2021/12/17 03:11:57;;;;;;;10.6;17.1;;;;;;;5.2;75.2;100010;;;;
2021/12/17 03:23:28;;;;;;;8.5;12.6;;;;;;;5.2;74.3;100000;;;;
2021/12/17 03:31:58;;;;;;;8.5;12.6;;;;;;;5.3;73.9;100010;;;;
2021/12/17 03:43:02;;;;;;;8.5;12.6;;;;;;;5.2;73.6;100010;;;;
2021/12/17 03:53:57;;;;;;;7.7;14.3;;;;;;;5.2;73.4;100010;;;;
2021/12/17 04:03:57;;;;;;;7.7;14.3;;;;;;;5.2;73.8;100010;;;;
2021/12/17 04:13:57;;;;;;;7.7;14.3;;;;;;;5.1;73.3;100010;;;;
2021/12/17 04:23:57;;;;;;;7.8;12.9;;;;;;;5;71.9;100000;;;;
2021/12/17 04:33:57;;;;;;;7.8;12.9;;;;;;;5;71;100000;;;;
2021/12/17 04:44:04;;;;;;;7.8;12.9;;;;;;;5.1;71.1;100000;;;;
2021/12/17 05:05:04;;;;;;;7.4;13.4;;;;;;;5;70.3;100000;;;;
2021/12/17 05:25:57;;;;;;;6.6;12.8;;;;;;;4.9;72;99990;;;;
2021/12/17 05:36:57;;;;;;;6.6;12.8;;;;;;;4.9;72.3;99980;;;;
2021/12/17 05:47:57;;;;;;;6.6;12.8;;;;;;;4.9;71.8;99990;;;;
2021/12/17 05:57:57;;;;;;;7;12.4;;;;;;;4.8;71.4;99990;;;;
2021/12/17 06:07:58;;;;;;;7;12.4;;;;;;;4.8;71.8;100000;;;;
2021/12/17 06:17:57;;;;;;;7;12.4;;;;;;;4.8;71.8;100010;;;;
2021/12/17 06:27:57;;;;;;;9.1;18.1;;;;;;;4.9;72.4;100020;;;;
2021/12/17 06:38:57;;;;;;;9.1;18.1;;;;;;;5;71.9;100030;;;;
2021/12/17 06:49:15;;;;;;;9.1;18.1;;;;;;;4.8;71.3;100040;;;;
2021/12/17 07:00:13;;;;;;;9.9;15.8;;;;;;;4.8;71.3;100030;;;;
2021/12/17 07:10:59;;;;;;;9.9;15.8;;;;;;;4.8;70.7;100030;;;;
2021/12/17 07:22:03;;;;;;;8.5;14.8;;;;;;;4.7;70.2;100010;;;;
2021/12/17 07:32:30;;;;;;;8.5;14.8;;;;;;;4.7;70.2;100030;;;;
2021/12/17 07:42:57;;;;;;;8.5;14.8;;;;;;;4.7;70;100020;;;;
2021/12/17 07:52:57;;;;;;;8.4;16.5;;;;;;;4.8;69.9;100020;;;;
2021/12/17 08:02:57;;;;;;;8.4;16.5;;;;;;;4.7;69.9;100010;;;;
2021/12/17 08:12:57;;;;;;;8.4;16.5;;;;;;;4.8;70.4;100000;;;;
2021/12/17 08:33:57;;;;;;;10.1;19.6;;;;;;;4.9;71;100030;;;;
2021/12/17 08:43:57;;;;;;;10.1;19.6;;;;;;;5;70.4;100020;;;;
2021/12/17 08:53:57;;;;;;;8.6;17.5;;;;;;;5;70.8;100040;;;;
2021/12/17 09:04:57;;;;;;;8.6;17.5;;;;;;;4.9;70.6;100040;;;;
2021/12/17 09:14:57;;;;;;;8.6;17.5;;;;;;;5;71;100070;;;;
2021/12/17 09:25:57;;;;;;;8.5;12.5;;;;;;;5.1;70.7;100060;;;;
2021/12/17 09:36:57;;;;;;;8.5;12.5;;;;;;;5.1;70.4;100060;;;;
2021/12/17 09:46:59;;;;;;;8.5;12.5;;;;;;;5.1;70.6;100040;;;;
2021/12/17 09:57:57;;;;;;;9.4;15.3;;;;;;;5.3;70.5;100020;;;;
2021/12/17 10:07:57;;;;;;;9.4;15.3;;;;;;;5.2;70.8;100010;;;;
2021/12/17 10:18:58;;;;;;;9.4;15.3;;;;;;;5.3;70.1;100010;;;;
2021/12/17 10:29:57;;;;;;;9.4;15.2;;;;;;;5.4;69.9;99990;;;;
2021/12/17 10:41:02;;;;;;;9.4;15.2;;;;;;;5.4;69.7;99980;;;;
2021/12/17 10:50:57;;;;;;;10.6;19.4;;;;;;;5.4;70.2;99980;;;;
2021/12/17 11:00:58;;;;;;;10.6;19.4;;;;;;;5.4;69.6;99980;;;;
2021/12/17 11:12:01;;;;;;;10.6;19.4;;;;;;;5.3;69.2;99980;;;;
2021/12/17 11:21:57;;;;;;;9.7;17.8;;;;;;;5.4;69.6;99990;;;;
2021/12/17 11:31:57;;;;;;;9.7;17.8;;;;;;;5.5;68.5;99980;;;;
2021/12/17 11:41:57;;;;;;;9.7;17.8;;;;;;;5.5;68.2;99980;;;;
2021/12/17 11:51:58;;;;;;;8.6;15;;;;;;;5.4;68.2;99980;;;;
2021/12/17 12:02:57;;;;;;;8.6;15;;;;;;;5.5;69.4;99970;;;;
2021/12/17 12:13:57;;;;;;;8.6;15;;;;;;;5.4;68.6;99960;;;;
2021/12/17 12:23:57;;;;;;;9.5;16.3;;;;;;;5.1;67.2;99950;;;;
2021/12/17 12:33:57;;;;;;;9.5;16.3;;;;;;;5.1;66.9;99960;;;;
2021/12/17 12:44:57;;;;;;;9.5;16.3;;;;;;;4.9;67.5;99980;;;;
2021/12/17 12:54:57;;;;;;;7.4;12.4;;;;;;;5;68.1;99980;;;;
2021/12/17 13:05:59;;;;;;;7.4;12.4;;;;;;;4.8;67.6;99970;;;;
2021/12/17 13:16:11;;;;;;;7.4;12.4;;;;;;;4.8;67.8;99970;;;;
2021/12/17 13:26:57;;;;;;;9;17.2;;;;;;;4.9;68.4;99960;;;;
2021/12/17 13:37:57;;;;;;;9;17.2;;;;;;;4.8;69.2;99960;;;;
2021/12/17 13:47:58;;;;;;;9;17.2;;;;;;;4.7;69.1;99960;;;;
2021/12/17 13:57:57;;;;;;;9.5;15.8;;;;;;;4.7;69.2;99960;;;;
2021/12/17 14:08:57;;;;;;;9.5;15.8;;;;;;;4.7;69.6;99970;;;;
2021/12/17 14:19:57;;;;;;;12;18;;;;;;;4.7;69.8;99960;;;;
2021/12/17 14:29:57;;;;;;;12;18;;;;;;;4.7;69.6;99970;;;;
2021/12/17 14:39:59;;;;;;;12;18;;;;;;;4.7;69.7;99960;;;;
2021/12/17 15:01:14;;;;;;;14.8;22.7;;;;;;;4.6;70.4;99970;;;;
2021/12/17 15:09:58;;;;;;;14.8;22.7;;;;;;;4.6;70.4;99960;;;;
2021/12/17 15:20:57;;;;;;;18.7;23.5;;;;;;;4.6;70.5;99970;;;;
2021/12/17 15:30:58;;;;;;;18.7;23.5;;;;;;;4.5;70.1;99970;;;;
2021/12/17 15:40:57;;;;;;;18.7;23.5;;;;;;;4.5;70;99970;;;;
2021/12/17 15:51:58;;;;;;;17.2;27.4;;;;;;;4.5;70.2;99990;;;;
2021/12/17 16:02:57;;;;;;;17.2;27.4;;;;;;;4.5;70.3;100000;;;;
2021/12/17 16:23:57;;;;;;;20.2;29.1;;;;;;;4.6;70.2;99990;;;;
2021/12/17 16:33:58;;;;;;;20.2;29.1;;;;;;;4.5;70.3;99990;;;;
2021/12/17 16:44:01;;;;;;;20.2;29.1;;;;;;;4.6;70.1;99990;;;;
2021/12/17 16:53:57;;;;;;;17.6;23;;;;;;;4.5;70.4;99990;;;;
2021/12/17 17:04:57;;;;;;;17.6;23;;;;;;;4.5;70.2;99980;;;;
2021/12/17 17:14:57;;;;;;;17.6;23;;;;;;;4.5;70.3;99990;;;;
2021/12/17 17:25:57;;;;;;;16.6;23.9;;;;;;;4.5;70.3;100010;;;;
2021/12/17 17:35:58;;;;;;;16.6;23.9;;;;;;;4.5;70.3;100010;;;;
2021/12/17 17:45:57;;;;;;;16.6;23.9;;;;;;;4.5;70.6;100010;;;;
2021/12/17 17:55:57;;;;;;;15.4;22.1;;;;;;;4.5;70.6;100020;;;;
2021/12/17 18:05:58;;;;;;;15.4;22.1;;;;;;;4.5;70.3;100020;;;;
2021/12/17 18:15:57;;;;;;;15.4;22.1;;;;;;;4.5;70.2;100000;;;;
2021/12/17 18:25:57;;;;;;;14.5;18.1;;;;;;;4.6;70.1;100020;;;;
2021/12/17 18:36:57;;;;;;;14.5;18.1;;;;;;;4.6;70.3;100010;;;;
2021/12/17 18:47:57;;;;;;;14.5;18.1;;;;;;;4.5;70.8;100000;;;;
2021/12/17 18:57:57;;;;;;;13.6;23.3;;;;;;;4.5;70.8;100010;;;;
2021/12/17 19:07:57;;;;;;;13.6;23.3;;;;;;;4.5;70.5;100010;;;;
2021/12/17 19:19:08;;;;;;;12.5;19.3;;;;;;;4.5;70.2;100030;;;;
2021/12/17 19:28:57;;;;;;;12.5;19.3;;;;;;;4.4;70.6;100030;;;;
2021/12/17 19:38:57;;;;;;;12.5;19.3;;;;;;;4.4;70.8;100060;;;;
2021/12/17 19:49:57;;;;;;;10.8;15.5;;;;;;;4.4;70.4;100040;;;;
2021/12/17 20:00:04;;;;;;;10.8;15.5;;;;;;;4.4;71.6;100060;;;;
2021/12/17 20:10:58;;;;;;;10.8;15.5;;;;;;;4.2;73.2;100070;;;;
2021/12/17 20:20:57;;;;;;;10;14.5;;;;;;;4;74.3;100070;;;;
2021/12/17 20:30:57;;;;;;;10;14.5;;;;;;;3.9;75;100080;;;;
2021/12/17 20:41:59;;;;;;;10;14.5;;;;;;;3.9;75.6;100080;;;;
2021/12/17 20:51:58;;;;;;;11.5;20.2;;;;;;;3.8;75.7;100080;;;;
2021/12/17 21:01:58;;;;;;;11.5;20.2;;;;;;;3.9;76.1;100080;;;;
2021/12/17 21:12:59;;;;;;;11.5;20.2;;;;;;;3.9;76.2;100100;;;;
2021/12/17 21:22:58;;;;;;;12.5;19.5;;;;;;;3.9;76.1;100120;;;;
2021/12/17 21:32:57;;;;;;;12.5;19.5;;;;;;;3.8;76;100130;;;;
2021/12/17 21:42:58;;;;;;;12.5;19.5;;;;;;;3.7;76.6;100120;;;;
2021/12/17 21:53:58;;;;;;;10.3;16.5;;;;;;;3.6;77.5;100130;;;;
2021/12/17 22:05:00;;;;;;;10.3;16.5;;;;;;;3.6;77.3;100140;;;;
2021/12/17 22:14:58;;;;;;;10.3;16.5;;;;;;;3.6;77.1;100130;;;;
2021/12/17 22:24:58;;;;;;;12;21.1;;;;;;;3.6;76.8;100140;;;;
2021/12/17 22:35:58;;;;;;;12;21.1;;;;;;;3.6;76.6;100150;;;;
2021/12/17 22:45:58;;;;;;;12;21.1;;;;;;;3.6;76.3;100160;;;;
2021/12/17 22:55:58;;;;;;;10.7;19.6;;;;;;;3.6;76.5;100170;;;;
2021/12/17 23:05:59;;;;;;;10.7;19.6;;;;;;;3.5;76.6;100170;;;;
2021/12/17 23:16:57;;;;;;;10.7;19.6;;;;;;;3.5;77.1;100190;;;;
2021/12/17 23:26:57;;;;;;;10.9;18.1;;;;;;;3.5;77.1;100190;;;;
2021/12/17 23:37:58;;;;;;;10.9;18.1;;;;;;;3.5;77.2;100200;;;;
2021/12/17 23:48:58;;;;;;;14;19.2;;;;;;;3.5;77.4;100210;;;;
2021/12/17 23:59:59;;;;;;;14;19.2;;;;;;;3.5;77.3;100200;;;;
